Terminal Aerodrome Forecast
Issued by NWS Louisville, KY

Home | Current Version | Previous Version | Text Only | Print | Product List | Glossary On
Versions: 1 2 3 4 5 6 7 8 9 10 11 12 13 14 15
448
FTUS43 KLMK 242320
TAFBWG
TAF
KBWG 242320Z 2500/2524 28006KT P6SM BKN035
     FM250700 24008KT P6SM BKN015
     FM251000 23008KT P6SM BKN008
     FM251300 27012KT P6SM BKN015
     FM251700 27009G19KT P6SM SCT040=

USA.gov is the U.S. government's official web portal to all federal, state and local government web resources and services.